sensor_id;sensor_type;location;lat;lon;timestamp;P1;durP1;ratioP1;P2;durP2;ratioP2
32535;SDS011;18974;50.838;4.636;2023-08-01T00:00:33;3.78;;;1.80;;
32535;SDS011;18974;50.838;4.636;2023-08-01T00:02:59;2.97;;;1.40;;
32535;SDS011;18974;50.838;4.636;2023-08-01T00:05:24;5.93;;;2.20;;
32535;SDS011;18974;50.838;4.636;2023-08-01T00:07:51;9.63;;;2.10;;
32535;SDS011;18974;50.838;4.636;2023-08-01T00:10:17;4.82;;;1.70;;
32535;SDS011;18974;50.838;4.636;2023-08-01T00:12:43;6.70;;;1.90;;
32535;SDS011;18974;50.838;4.636;2023-08-01T00:15:08;3.60;;;2.10;;
32535;SDS011;18974;50.838;4.636;2023-08-01T00:17:35;4.80;;;2.10;;
32535;SDS011;18974;50.838;4.636;2023-08-01T00:20:01;9.77;;;2.40;;
32535;SDS011;18974;50.838;4.636;2023-08-01T00:22:28;3.53;;;2.13;;
32535;SDS011;18974;50.838;4.636;2023-08-01T00:24:54;5.57;;;2.10;;
32535;SDS011;18974;50.838;4.636;2023-08-01T00:27:19;7.47;;;2.40;;
32535;SDS011;18974;50.838;4.636;2023-08-01T00:29:45;7.57;;;2.40;;
32535;SDS011;18974;50.838;4.636;2023-08-01T00:32:11;8.20;;;2.50;;
32535;SDS011;18974;50.838;4.636;2023-08-01T00:34:37;5.43;;;2.88;;
32535;SDS011;18974;50.838;4.636;2023-08-01T00:37:03;4.55;;;2.50;;
32535;SDS011;18974;50.838;4.636;2023-08-01T00:39:29;5.80;;;2.65;;
32535;SDS011;18974;50.838;4.636;2023-08-01T00:41:55;9.75;;;2.60;;
32535;SDS011;18974;50.838;4.636;2023-08-01T00:44:21;7.63;;;3.15;;
32535;SDS011;18974;50.838;4.636;2023-08-01T00:46:47;8.60;;;3.08;;
32535;SDS011;18974;50.838;4.636;2023-08-01T00:49:13;4.82;;;2.83;;
32535;SDS011;18974;50.838;4.636;2023-08-01T00:51:39;6.03;;;2.63;;
32535;SDS011;18974;50.838;4.636;2023-08-01T00:54:06;7.03;;;3.10;;
32535;SDS011;18974;50.838;4.636;2023-08-01T00:56:31;6.15;;;2.75;;
32535;SDS011;18974;50.838;4.636;2023-08-01T00:58:57;12.60;;;3.75;;
32535;SDS011;18974;50.838;4.636;2023-08-01T01:01:23;9.13;;;3.38;;
32535;SDS011;18974;50.838;4.636;2023-08-01T01:03:49;10.27;;;3.45;;
32535;SDS011;18974;50.838;4.636;2023-08-01T01:08:57;4.75;;;3.00;;
32535;SDS011;18974;50.838;4.636;2023-08-01T01:11:23;6.38;;;3.03;;
32535;SDS011;18974;50.838;4.636;2023-08-01T01:13:48;11.85;;;3.30;;
32535;SDS011;18974;50.838;4.636;2023-08-01T01:16:17;9.40;;;2.90;;
32535;SDS011;18974;50.838;4.636;2023-08-01T01:18:44;9.88;;;3.53;;
32535;SDS011;18974;50.838;4.636;2023-08-01T01:21:10;5.53;;;3.50;;
32535;SDS011;18974;50.838;4.636;2023-08-01T01:23:35;7.18;;;3.55;;
32535;SDS011;18974;50.838;4.636;2023-08-01T01:26:02;11.93;;;4.10;;
32535;SDS011;18974;50.838;4.636;2023-08-01T01:28:29;12.02;;;3.72;;
32535;SDS011;18974;50.838;4.636;2023-08-01T01:30:56;6.80;;;3.30;;
32535;SDS011;18974;50.838;4.636;2023-08-01T01:33:22;9.02;;;4.00;;
32535;SDS011;18974;50.838;4.636;2023-08-01T01:35:48;5.45;;;3.53;;
32535;SDS011;18974;50.838;4.636;2023-08-01T01:38:14;11.23;;;4.38;;
32535;SDS011;18974;50.838;4.636;2023-08-01T01:40:41;8.23;;;4.07;;
32535;SDS011;18974;50.838;4.636;2023-08-01T01:43:06;11.63;;;4.05;;
32535;SDS011;18974;50.838;4.636;2023-08-01T01:45:32;9.18;;;3.83;;
32535;SDS011;18974;50.838;4.636;2023-08-01T01:47:58;11.70;;;4.70;;
32535;SDS011;18974;50.838;4.636;2023-08-01T01:50:23;8.32;;;4.47;;
32535;SDS011;18974;50.838;4.636;2023-08-01T01:52:49;10.38;;;4.57;;
32535;SDS011;18974;50.838;4.636;2023-08-01T01:55:15;10.00;;;4.82;;
32535;SDS011;18974;50.838;4.636;2023-08-01T01:57:40;10.50;;;4.50;;
32535;SDS011;18974;50.838;4.636;2023-08-01T02:00:06;13.10;;;4.93;;
32535;SDS011;18974;50.838;4.636;2023-08-01T02:02:41;14.97;;;4.80;;
32535;SDS011;18974;50.838;4.636;2023-08-01T02:05:07;8.95;;;4.63;;
32535;SDS011;18974;50.838;4.636;2023-08-01T02:07:32;8.48;;;4.68;;
32535;SDS011;18974;50.838;4.636;2023-08-01T02:09:59;10.75;;;4.40;;
32535;SDS011;18974;50.838;4.636;2023-08-01T02:12:25;11.63;;;5.43;;
32535;SDS011;18974;50.838;4.636;2023-08-01T02:14:50;8.60;;;5.03;;
32535;SDS011;18974;50.838;4.636;2023-08-01T02:17:16;13.98;;;5.30;;
32535;SDS011;18974;50.838;4.636;2023-08-01T02:19:42;9.82;;;4.60;;
32535;SDS011;18974;50.838;4.636;2023-08-01T02:22:07;13.93;;;5.90;;
32535;SDS011;18974;50.838;4.636;2023-08-01T02:24:33;11.90;;;5.00;;
32535;SDS011;18974;50.838;4.636;2023-08-01T02:26:59;13.80;;;5.22;;
32535;SDS011;18974;50.838;4.636;2023-08-01T02:29:24;12.57;;;5.70;;
32535;SDS011;18974;50.838;4.636;2023-08-01T02:31:50;16.05;;;5.80;;
32535;SDS011;18974;50.838;4.636;2023-08-01T02:34:15;14.50;;;5.95;;
32535;SDS011;18974;50.838;4.636;2023-08-01T02:36:41;10.93;;;5.13;;
32535;SDS011;18974;50.838;4.636;2023-08-01T02:39:07;10.82;;;5.35;;
32535;SDS011;18974;50.838;4.636;2023-08-01T02:41:32;16.10;;;5.53;;
32535;SDS011;18974;50.838;4.636;2023-08-01T02:43:58;16.98;;;5.38;;
32535;SDS011;18974;50.838;4.636;2023-08-01T02:46:24;10.63;;;5.30;;
32535;SDS011;18974;50.838;4.636;2023-08-01T02:48:52;8.68;;;4.90;;
32535;SDS011;18974;50.838;4.636;2023-08-01T02:51:17;10.20;;;5.10;;
32535;SDS011;18974;50.838;4.636;2023-08-01T02:53:43;10.60;;;5.32;;
32535;SDS011;18974;50.838;4.636;2023-08-01T02:56:08;13.45;;;5.95;;
32535;SDS011;18974;50.838;4.636;2023-08-01T02:58:35;14.25;;;6.05;;
32535;SDS011;18974;50.838;4.636;2023-08-01T03:01:01;16.17;;;6.18;;
32535;SDS011;18974;50.838;4.636;2023-08-01T03:03:32;17.60;;;6.50;;
32535;SDS011;18974;50.838;4.636;2023-08-01T03:05:57;17.30;;;6.05;;
32535;SDS011;18974;50.838;4.636;2023-08-01T03:08:24;10.07;;;5.90;;
32535;SDS011;18974;50.838;4.636;2023-08-01T03:10:50;9.93;;;5.57;;
32535;SDS011;18974;50.838;4.636;2023-08-01T03:13:16;16.77;;;5.85;;
32535;SDS011;18974;50.838;4.636;2023-08-01T03:15:41;14.57;;;5.85;;
32535;SDS011;18974;50.838;4.636;2023-08-01T03:18:07;14.32;;;6.40;;
32535;SDS011;18974;50.838;4.636;2023-08-01T03:20:33;16.88;;;6.88;;
32535;SDS011;18974;50.838;4.636;2023-08-01T03:22:59;13.82;;;6.80;;
32535;SDS011;18974;50.838;4.636;2023-08-01T03:25:24;19.23;;;6.80;;
32535;SDS011;18974;50.838;4.636;2023-08-01T03:27:50;19.33;;;6.60;;
32535;SDS011;18974;50.838;4.636;2023-08-01T03:30:16;14.63;;;6.68;;
32535;SDS011;18974;50.838;4.636;2023-08-01T03:32:41;14.88;;;6.50;;
32535;SDS011;18974;50.838;4.636;2023-08-01T03:35:07;16.92;;;6.85;;
32535;SDS011;18974;50.838;4.636;2023-08-01T03:37:33;16.48;;;6.18;;
32535;SDS011;18974;50.838;4.636;2023-08-01T03:39:59;14.30;;;6.60;;
32535;SDS011;18974;50.838;4.636;2023-08-01T03:42:24;16.80;;;6.90;;
32535;SDS011;18974;50.838;4.636;2023-08-01T03:44:50;15.50;;;6.32;;
32535;SDS011;18974;50.838;4.636;2023-08-01T03:47:16;16.15;;;7.38;;
32535;SDS011;18974;50.838;4.636;2023-08-01T03:49:41;17.38;;;7.40;;
32535;SDS011;18974;50.838;4.636;2023-08-01T03:52:07;17.00;;;6.93;;
32535;SDS011;18974;50.838;4.636;2023-08-01T03:54:33;19.25;;;7.75;;
32535;SDS011;18974;50.838;4.636;2023-08-01T03:56:59;16.35;;;7.88;;
32535;SDS011;18974;50.838;4.636;2023-08-01T03:59:24;22.30;;;7.15;;
32535;SDS011;18974;50.838;4.636;2023-08-01T04:01:51;13.70;;;7.53;;
32535;SDS011;18974;50.838;4.636;2023-08-01T04:04:17;16.60;;;6.93;;
32535;SDS011;18974;50.838;4.636;2023-08-01T04:06:42;14.45;;;6.95;;
32535;SDS011;18974;50.838;4.636;2023-08-01T04:09:08;18.88;;;7.25;;
32535;SDS011;18974;50.838;4.636;2023-08-01T04:11:34;16.05;;;7.35;;
32535;SDS011;18974;50.838;4.636;2023-08-01T04:13:59;18.65;;;7.90;;
32535;SDS011;18974;50.838;4.636;2023-08-01T04:16:25;17.95;;;7.70;;
32535;SDS011;18974;50.838;4.636;2023-08-01T04:18:51;19.85;;;7.72;;
32535;SDS011;18974;50.838;4.636;2023-08-01T04:21:17;23.13;;;8.35;;
32535;SDS011;18974;50.838;4.636;2023-08-01T04:23:43;22.38;;;7.85;;
32535;SDS011;18974;50.838;4.636;2023-08-01T04:26:09;21.55;;;8.73;;
32535;SDS011;18974;50.838;4.636;2023-08-01T04:28:34;21.83;;;7.63;;
32535;SDS011;18974;50.838;4.636;2023-08-01T04:31:00;21.70;;;7.65;;
32535;SDS011;18974;50.838;4.636;2023-08-01T04:33:26;23.92;;;8.95;;
32535;SDS011;18974;50.838;4.636;2023-08-01T04:35:52;21.05;;;7.90;;
32535;SDS011;18974;50.838;4.636;2023-08-01T04:38:17;23.42;;;8.65;;
32535;SDS011;18974;50.838;4.636;2023-08-01T04:40:43;18.65;;;8.30;;
32535;SDS011;18974;50.838;4.636;2023-08-01T04:43:09;29.08;;;9.20;;
32535;SDS011;18974;50.838;4.636;2023-08-01T04:45:36;23.50;;;9.00;;
32535;SDS011;18974;50.838;4.636;2023-08-01T04:48:02;27.58;;;9.93;;
32535;SDS011;18974;50.838;4.636;2023-08-01T04:50:28;22.85;;;9.32;;
32535;SDS011;18974;50.838;4.636;2023-08-01T04:52:54;23.48;;;9.75;;
32535;SDS011;18974;50.838;4.636;2023-08-01T04:55:19;27.08;;;10.38;;
32535;SDS011;18974;50.838;4.636;2023-08-01T04:57:45;24.75;;;9.30;;
32535;SDS011;18974;50.838;4.636;2023-08-01T05:00:11;19.70;;;9.63;;
32535;SDS011;18974;50.838;4.636;2023-08-01T05:02:37;21.15;;;9.25;;
32535;SDS011;18974;50.838;4.636;2023-08-01T05:05:03;18.20;;;8.52;;
32535;SDS011;18974;50.838;4.636;2023-08-01T05:07:29;27.45;;;9.48;;
32535;SDS011;18974;50.838;4.636;2023-08-01T05:09:55;24.33;;;9.48;;
32535;SDS011;18974;50.838;4.636;2023-08-01T05:12:21;32.10;;;10.07;;
32535;SDS011;18974;50.838;4.636;2023-08-01T05:14:47;21.65;;;9.32;;
32535;SDS011;18974;50.838;4.636;2023-08-01T05:17:12;19.15;;;8.63;;
32535;SDS011;18974;50.838;4.636;2023-08-01T05:19:38;23.63;;;8.60;;
32535;SDS011;18974;50.838;4.636;2023-08-01T05:22:04;21.55;;;9.82;;
32535;SDS011;18974;50.838;4.636;2023-08-01T05:24:31;27.20;;;9.20;;
32535;SDS011;18974;50.838;4.636;2023-08-01T05:27:01;25.70;;;10.05;;
32535;SDS011;18974;50.838;4.636;2023-08-01T05:29:26;18.48;;;9.38;;
32535;SDS011;18974;50.838;4.636;2023-08-01T05:31:52;24.15;;;8.48;;
32535;SDS011;18974;50.838;4.636;2023-08-01T05:34:18;24.15;;;9.50;;
32535;SDS011;18974;50.838;4.636;2023-08-01T05:36:43;20.70;;;8.93;;
32535;SDS011;18974;50.838;4.636;2023-08-01T05:39:09;20.50;;;8.25;;
32535;SDS011;18974;50.838;4.636;2023-08-01T05:41:34;20.20;;;7.78;;
32535;SDS011;18974;50.838;4.636;2023-08-01T05:44:01;23.95;;;8.38;;
32535;SDS011;18974;50.838;4.636;2023-08-01T05:46:27;15.85;;;7.68;;
32535;SDS011;18974;50.838;4.636;2023-08-01T05:48:53;20.40;;;8.05;;
32535;SDS011;18974;50.838;4.636;2023-08-01T05:51:18;19.17;;;7.50;;
32535;SDS011;18974;50.838;4.636;2023-08-01T05:53:44;24.00;;;8.43;;
32535;SDS011;18974;50.838;4.636;2023-08-01T05:56:10;17.77;;;8.27;;
32535;SDS011;18974;50.838;4.636;2023-08-01T05:58:35;20.67;;;9.07;;
32535;SDS011;18974;50.838;4.636;2023-08-01T06:01:01;23.13;;;9.50;;
32535;SDS011;18974;50.838;4.636;2023-08-01T06:03:27;20.27;;;8.52;;
32535;SDS011;18974;50.838;4.636;2023-08-01T06:05:53;19.02;;;8.00;;
32535;SDS011;18974;50.838;4.636;2023-08-01T06:08:18;23.30;;;8.00;;
32535;SDS011;18974;50.838;4.636;2023-08-01T06:10:44;18.95;;;7.88;;
32535;SDS011;18974;50.838;4.636;2023-08-01T06:13:10;23.33;;;7.75;;
32535;SDS011;18974;50.838;4.636;2023-08-01T06:15:35;21.33;;;7.60;;
32535;SDS011;18974;50.838;4.636;2023-08-01T06:18:01;21.48;;;7.15;;
32535;SDS011;18974;50.838;4.636;2023-08-01T06:20:27;17.33;;;6.97;;
32535;SDS011;18974;50.838;4.636;2023-08-01T06:22:53;20.92;;;7.97;;
32535;SDS011;18974;50.838;4.636;2023-08-01T06:25:19;16.58;;;6.88;;
32535;SDS011;18974;50.838;4.636;2023-08-01T06:27:44;19.77;;;6.97;;
32535;SDS011;18974;50.838;4.636;2023-08-01T06:30:10;25.65;;;7.30;;
32535;SDS011;18974;50.838;4.636;2023-08-01T06:32:36;22.52;;;7.30;;
32535;SDS011;18974;50.838;4.636;2023-08-01T06:35:02;17.00;;;7.35;;
32535;SDS011;18974;50.838;4.636;2023-08-01T06:37:28;17.50;;;7.03;;
32535;SDS011;18974;50.838;4.636;2023-08-01T06:39:54;22.60;;;8.13;;
32535;SDS011;18974;50.838;4.636;2023-08-01T06:42:20;19.05;;;7.68;;
32535;SDS011;18974;50.838;4.636;2023-08-01T06:44:46;17.42;;;6.38;;
32535;SDS011;18974;50.838;4.636;2023-08-01T06:47:12;21.63;;;7.13;;
32535;SDS011;18974;50.838;4.636;2023-08-01T06:49:37;17.52;;;7.72;;
32535;SDS011;18974;50.838;4.636;2023-08-01T06:52:03;19.23;;;7.55;;
32535;SDS011;18974;50.838;4.636;2023-08-01T06:54:29;23.75;;;7.68;;
32535;SDS011;18974;50.838;4.636;2023-08-01T06:56:55;18.92;;;7.28;;
32535;SDS011;18974;50.838;4.636;2023-08-01T06:59:20;18.75;;;7.45;;
32535;SDS011;18974;50.838;4.636;2023-08-01T07:01:46;22.38;;;7.53;;
32535;SDS011;18974;50.838;4.636;2023-08-01T07:04:12;16.08;;;8.80;;
32535;SDS011;18974;50.838;4.636;2023-08-01T07:14:24;15.30;;;6.60;;
32535;SDS011;18974;50.838;4.636;2023-08-01T07:16:50;18.42;;;7.20;;
32535;SDS011;18974;50.838;4.636;2023-08-01T07:19:16;15.80;;;7.90;;
32535;SDS011;18974;50.838;4.636;2023-08-01T07:21:42;15.35;;;6.78;;
32535;SDS011;18974;50.838;4.636;2023-08-01T07:24:10;22.23;;;6.55;;
32535;SDS011;18974;50.838;4.636;2023-08-01T07:26:35;14.18;;;6.68;;
32535;SDS011;18974;50.838;4.636;2023-08-01T07:29:01;17.98;;;7.05;;
32535;SDS011;18974;50.838;4.636;2023-08-01T07:31:27;15.80;;;6.40;;
32535;SDS011;18974;50.838;4.636;2023-08-01T07:33:53;15.13;;;5.80;;
32535;SDS011;18974;50.838;4.636;2023-08-01T07:36:19;14.70;;;6.50;;
32535;SDS011;18974;50.838;4.636;2023-08-01T07:38:46;15.65;;;6.50;;
32535;SDS011;18974;50.838;4.636;2023-08-01T07:41:12;12.75;;;6.10;;
32535;SDS011;18974;50.838;4.636;2023-08-01T07:43:38;15.98;;;5.88;;
32535;SDS011;18974;50.838;4.636;2023-08-01T07:46:03;15.20;;;5.50;;
32535;SDS011;18974;50.838;4.636;2023-08-01T07:48:29;15.68;;;5.43;;
32535;SDS011;18974;50.838;4.636;2023-08-01T07:50:55;13.02;;;5.32;;
32535;SDS011;18974;50.838;4.636;2023-08-01T07:53:22;12.95;;;5.18;;
32535;SDS011;18974;50.838;4.636;2023-08-01T07:55:48;15.23;;;5.78;;
32535;SDS011;18974;50.838;4.636;2023-08-01T07:58:15;11.43;;;5.65;;
32535;SDS011;18974;50.838;4.636;2023-08-01T08:00:41;19.65;;;5.43;;
32535;SDS011;18974;50.838;4.636;2023-08-01T08:03:07;19.65;;;5.65;;
32535;SDS011;18974;50.838;4.636;2023-08-01T08:05:33;19.77;;;5.82;;
32535;SDS011;18974;50.838;4.636;2023-08-01T08:08:03;23.45;;;6.15;;
32535;SDS011;18974;50.838;4.636;2023-08-01T08:10:30;13.75;;;5.20;;
32535;SDS011;18974;50.838;4.636;2023-08-01T08:12:55;17.98;;;5.45;;
32535;SDS011;18974;50.838;4.636;2023-08-01T08:15:21;11.10;;;4.88;;
32535;SDS011;18974;50.838;4.636;2023-08-01T08:17:48;19.63;;;5.80;;
32535;SDS011;18974;50.838;4.636;2023-08-01T08:20:14;16.75;;;5.10;;
32535;SDS011;18974;50.838;4.636;2023-08-01T08:22:40;16.60;;;5.07;;
32535;SDS011;18974;50.838;4.636;2023-08-01T08:25:06;13.90;;;4.95;;
32535;SDS011;18974;50.838;4.636;2023-08-01T08:27:32;14.90;;;5.32;;
32535;SDS011;18974;50.838;4.636;2023-08-01T08:29:57;14.40;;;4.78;;
32535;SDS011;18974;50.838;4.636;2023-08-01T08:32:23;13.93;;;4.68;;
32535;SDS011;18974;50.838;4.636;2023-08-01T08:34:49;11.30;;;4.30;;
32535;SDS011;18974;50.838;4.636;2023-08-01T08:37:15;16.15;;;4.60;;
32535;SDS011;18974;50.838;4.636;2023-08-01T08:39:40;15.50;;;4.45;;
32535;SDS011;18974;50.838;4.636;2023-08-01T08:42:06;12.45;;;4.30;;
32535;SDS011;18974;50.838;4.636;2023-08-01T08:44:32;12.35;;;4.63;;
32535;SDS011;18974;50.838;4.636;2023-08-01T08:47:07;10.05;;;3.78;;
32535;SDS011;18974;50.838;4.636;2023-08-01T08:49:35;12.52;;;4.30;;
32535;SDS011;18974;50.838;4.636;2023-08-01T08:52:01;19.13;;;4.18;;
32535;SDS011;18974;50.838;4.636;2023-08-01T08:54:28;12.60;;;4.00;;
32535;SDS011;18974;50.838;4.636;2023-08-01T08:56:55;12.32;;;3.55;;
32535;SDS011;18974;50.838;4.636;2023-08-01T08:59:21;12.88;;;4.25;;
32535;SDS011;18974;50.838;4.636;2023-08-01T09:01:47;14.13;;;3.72;;
32535;SDS011;18974;50.838;4.636;2023-08-01T09:04:13;9.75;;;3.60;;
32535;SDS011;18974;50.838;4.636;2023-08-01T09:06:46;12.15;;;3.38;;
32535;SDS011;18974;50.838;4.636;2023-08-01T09:09:14;11.43;;;3.28;;
32535;SDS011;18974;50.838;4.636;2023-08-01T09:11:44;8.07;;;3.10;;
32535;SDS011;18974;50.838;4.636;2023-08-01T09:14:12;9.98;;;3.70;;
32535;SDS011;18974;50.838;4.636;2023-08-01T09:16:40;10.15;;;3.42;;
32535;SDS011;18974;50.838;4.636;2023-08-01T09:19:06;11.38;;;3.15;;
32535;SDS011;18974;50.838;4.636;2023-08-01T09:21:35;8.23;;;2.85;;
32535;SDS011;18974;50.838;4.636;2023-08-01T09:24:10;8.68;;;2.47;;
32535;SDS011;18974;50.838;4.636;2023-08-01T09:26:37;12.70;;;3.60;;
32535;SDS011;18974;50.838;4.636;2023-08-01T09:29:04;9.00;;;3.33;;
32535;SDS011;18974;50.838;4.636;2023-08-01T09:31:31;9.57;;;3.47;;
32535;SDS011;18974;50.838;4.636;2023-08-01T09:33:59;11.85;;;3.30;;
32535;SDS011;18974;50.838;4.636;2023-08-01T09:36:26;10.95;;;3.50;;
32535;SDS011;18974;50.838;4.636;2023-08-01T09:38:57;13.80;;;3.70;;
32535;SDS011;18974;50.838;4.636;2023-08-01T09:41:24;9.30;;;3.75;;
32535;SDS011;18974;50.838;4.636;2023-08-01T09:43:50;13.45;;;3.53;;
32535;SDS011;18974;50.838;4.636;2023-08-01T09:46:16;13.85;;;3.80;;
32535;SDS011;18974;50.838;4.636;2023-08-01T09:48:42;7.18;;;3.22;;
32535;SDS011;18974;50.838;4.636;2023-08-01T09:51:10;10.50;;;4.70;;
32535;SDS011;18974;50.838;4.636;2023-08-01T09:53:51;11.65;;;4.05;;
32535;SDS011;18974;50.838;4.636;2023-08-01T09:56:21;9.85;;;2.90;;
32535;SDS011;18974;50.838;4.636;2023-08-01T09:58:51;9.65;;;3.10;;
32535;SDS011;18974;50.838;4.636;2023-08-01T10:01:20;6.65;;;2.40;;
32535;SDS011;18974;50.838;4.636;2023-08-01T10:03:50;10.45;;;2.42;;
32535;SDS011;18974;50.838;4.636;2023-08-01T10:06:21;10.15;;;3.15;;
32535;SDS011;18974;50.838;4.636;2023-08-01T10:08:48;9.05;;;2.90;;
32535;SDS011;18974;50.838;4.636;2023-08-01T10:11:17;7.47;;;3.00;;
32535;SDS011;18974;50.838;4.636;2023-08-01T10:13:44;6.85;;;2.38;;
32535;SDS011;18974;50.838;4.636;2023-08-01T10:16:11;7.55;;;2.28;;
32535;SDS011;18974;50.838;4.636;2023-08-01T10:18:37;8.45;;;2.42;;
32535;SDS011;18974;50.838;4.636;2023-08-01T10:21:05;9.73;;;2.50;;
32535;SDS011;18974;50.838;4.636;2023-08-01T10:23:32;8.75;;;2.50;;
32535;SDS011;18974;50.838;4.636;2023-08-01T10:25:59;9.05;;;2.50;;
32535;SDS011;18974;50.838;4.636;2023-08-01T10:28:36;7.65;;;2.13;;
32535;SDS011;18974;50.838;4.636;2023-08-01T10:31:13;12.73;;;2.22;;
32535;SDS011;18974;50.838;4.636;2023-08-01T10:33:42;7.38;;;2.33;;
32535;SDS011;18974;50.838;4.636;2023-08-01T10:36:19;10.40;;;2.30;;
32535;SDS011;18974;50.838;4.636;2023-08-01T10:38:50;6.15;;;2.10;;
32535;SDS011;18974;50.838;4.636;2023-08-01T10:41:30;7.95;;;2.35;;
32535;SDS011;18974;50.838;4.636;2023-08-01T10:44:13;12.02;;;2.65;;
32535;SDS011;18974;50.838;4.636;2023-08-01T10:49:39;7.65;;;2.47;;
32535;SDS011;18974;50.838;4.636;2023-08-01T10:52:23;8.70;;;2.60;;
32535;SDS011;18974;50.838;4.636;2023-08-01T10:57:26;7.43;;;2.75;;
32535;SDS011;18974;50.838;4.636;2023-08-01T10:59:54;4.97;;;1.92;;
32535;SDS011;18974;50.838;4.636;2023-08-01T11:02:28;5.10;;;2.15;;
32535;SDS011;18974;50.838;4.636;2023-08-01T11:04:58;7.35;;;2.20;;
32535;SDS011;18974;50.838;4.636;2023-08-01T11:07:24;6.88;;;2.05;;
32535;SDS011;18974;50.838;4.636;2023-08-01T11:10:02;14.20;;;2.67;;
32535;SDS011;18974;50.838;4.636;2023-08-01T11:12:27;4.60;;;1.95;;
32535;SDS011;18974;50.838;4.636;2023-08-01T11:14:58;8.23;;;2.33;;
32535;SDS011;18974;50.838;4.636;2023-08-01T11:17:27;7.30;;;2.17;;
32535;SDS011;18974;50.838;4.636;2023-08-01T11:19:59;7.00;;;2.55;;
32535;SDS011;18974;50.838;4.636;2023-08-01T11:22:29;9.55;;;2.58;;
32535;SDS011;18974;50.838;4.636;2023-08-01T11:24:55;6.43;;;2.63;;
32535;SDS011;18974;50.838;4.636;2023-08-01T11:27:21;9.20;;;2.40;;
32535;SDS011;18974;50.838;4.636;2023-08-01T11:29:47;16.00;;;2.80;;
32535;SDS011;18974;50.838;4.636;2023-08-01T11:32:12;8.70;;;2.10;;
32535;SDS011;18974;50.838;4.636;2023-08-01T11:34:41;10.90;;;2.25;;
32535;SDS011;18974;50.838;4.636;2023-08-01T11:37:11;7.45;;;2.10;;
32535;SDS011;18974;50.838;4.636;2023-08-01T11:39:44;6.40;;;2.10;;
32535;SDS011;18974;50.838;4.636;2023-08-01T11:42:15;10.25;;;2.03;;
32535;SDS011;18974;50.838;4.636;2023-08-01T11:44:42;9.35;;;2.35;;
32535;SDS011;18974;50.838;4.636;2023-08-01T11:47:12;4.82;;;1.90;;
32535;SDS011;18974;50.838;4.636;2023-08-01T11:49:39;8.35;;;2.03;;
32535;SDS011;18974;50.838;4.636;2023-08-01T11:52:10;10.73;;;2.03;;
32535;SDS011;18974;50.838;4.636;2023-08-01T11:54:46;7.50;;;1.98;;
32535;SDS011;18974;50.838;4.636;2023-08-01T11:57:12;5.82;;;2.33;;
32535;SDS011;18974;50.838;4.636;2023-08-01T11:59:45;5.78;;;1.73;;
32535;SDS011;18974;50.838;4.636;2023-08-01T12:02:20;4.43;;;1.73;;
32535;SDS011;18974;50.838;4.636;2023-08-01T12:04:49;9.18;;;2.50;;
32535;SDS011;18974;50.838;4.636;2023-08-01T12:07:16;6.47;;;1.80;;
32535;SDS011;18974;50.838;4.636;2023-08-01T12:09:42;8.70;;;1.90;;
32535;SDS011;18974;50.838;4.636;2023-08-01T12:12:08;7.80;;;1.98;;
32535;SDS011;18974;50.838;4.636;2023-08-01T12:14:40;8.88;;;1.77;;
32535;SDS011;18974;50.838;4.636;2023-08-01T12:17:06;7.28;;;1.73;;
32535;SDS011;18974;50.838;4.636;2023-08-01T12:19:32;5.35;;;1.42;;
32535;SDS011;18974;50.838;4.636;2023-08-01T12:21:59;3.97;;;1.35;;
32535;SDS011;18974;50.838;4.636;2023-08-01T12:24:25;3.95;;;1.40;;
32535;SDS011;18974;50.838;4.636;2023-08-01T12:26:50;5.45;;;1.60;;
32535;SDS011;18974;50.838;4.636;2023-08-01T12:29:16;7.55;;;1.63;;
32535;SDS011;18974;50.838;4.636;2023-08-01T12:31:42;9.50;;;1.40;;
32535;SDS011;18974;50.838;4.636;2023-08-01T12:34:07;8.90;;;1.50;;
32535;SDS011;18974;50.838;4.636;2023-08-01T12:36:33;7.22;;;1.30;;
32535;SDS011;18974;50.838;4.636;2023-08-01T12:38:59;7.45;;;2.08;;
32535;SDS011;18974;50.838;4.636;2023-08-01T12:41:25;5.55;;;1.77;;
32535;SDS011;18974;50.838;4.636;2023-08-01T12:43:50;9.10;;;1.60;;
32535;SDS011;18974;50.838;4.636;2023-08-01T12:46:16;5.97;;;1.70;;
32535;SDS011;18974;50.838;4.636;2023-08-01T12:48:42;6.22;;;1.80;;
32535;SDS011;18974;50.838;4.636;2023-08-01T12:51:09;7.53;;;1.90;;
32535;SDS011;18974;50.838;4.636;2023-08-01T12:53:34;6.47;;;1.75;;
32535;SDS011;18974;50.838;4.636;2023-08-01T12:56:00;9.90;;;1.63;;
32535;SDS011;18974;50.838;4.636;2023-08-01T12:58:26;5.03;;;1.58;;
32535;SDS011;18974;50.838;4.636;2023-08-01T13:00:51;7.00;;;1.75;;
32535;SDS011;18974;50.838;4.636;2023-08-01T13:03:17;10.30;;;2.40;;
32535;SDS011;18974;50.838;4.636;2023-08-01T13:05:43;11.27;;;2.10;;
32535;SDS011;18974;50.838;4.636;2023-08-01T13:08:09;8.73;;;1.95;;
32535;SDS011;18974;50.838;4.636;2023-08-01T13:10:36;6.18;;;1.77;;
32535;SDS011;18974;50.838;4.636;2023-08-01T13:13:03;7.72;;;1.65;;
32535;SDS011;18974;50.838;4.636;2023-08-01T13:15:29;6.60;;;1.65;;
32535;SDS011;18974;50.838;4.636;2023-08-01T13:17:55;6.65;;;1.67;;
32535;SDS011;18974;50.838;4.636;2023-08-01T13:20:21;5.78;;;1.90;;
32535;SDS011;18974;50.838;4.636;2023-08-01T13:22:48;8.90;;;2.00;;
32535;SDS011;18974;50.838;4.636;2023-08-01T13:25:15;8.07;;;2.05;;
32535;SDS011;18974;50.838;4.636;2023-08-01T13:27:41;7.10;;;1.73;;
32535;SDS011;18974;50.838;4.636;2023-08-01T13:30:07;10.90;;;2.30;;
32535;SDS011;18974;50.838;4.636;2023-08-01T13:32:34;9.38;;;1.73;;
32535;SDS011;18974;50.838;4.636;2023-08-01T13:35:00;5.95;;;2.15;;
32535;SDS011;18974;50.838;4.636;2023-08-01T13:37:26;4.30;;;1.55;;
32535;SDS011;18974;50.838;4.636;2023-08-01T13:39:53;7.95;;;1.67;;
32535;SDS011;18974;50.838;4.636;2023-08-01T13:42:18;7.85;;;2.25;;
32535;SDS011;18974;50.838;4.636;2023-08-01T13:44:44;5.25;;;2.40;;
32535;SDS011;18974;50.838;4.636;2023-08-01T13:47:10;6.15;;;2.20;;
32535;SDS011;18974;50.838;4.636;2023-08-01T13:49:35;8.00;;;1.88;;
32535;SDS011;18974;50.838;4.636;2023-08-01T13:52:01;7.03;;;1.85;;
32535;SDS011;18974;50.838;4.636;2023-08-01T13:54:29;5.28;;;1.75;;
32535;SDS011;18974;50.838;4.636;2023-08-01T13:56:55;6.63;;;2.10;;
32535;SDS011;18974;50.838;4.636;2023-08-01T13:59:21;8.82;;;2.20;;
32535;SDS011;18974;50.838;4.636;2023-08-01T14:01:47;7.47;;;1.88;;
32535;SDS011;18974;50.838;4.636;2023-08-01T14:04:12;6.72;;;1.92;;
32535;SDS011;18974;50.838;4.636;2023-08-01T14:06:41;9.00;;;1.85;;
32535;SDS011;18974;50.838;4.636;2023-08-01T14:09:10;5.03;;;1.85;;
32535;SDS011;18974;50.838;4.636;2023-08-01T14:11:36;5.57;;;1.35;;
32535;SDS011;18974;50.838;4.636;2023-08-01T14:14:02;6.82;;;2.15;;
32535;SDS011;18974;50.838;4.636;2023-08-01T14:16:29;7.75;;;2.35;;
32535;SDS011;18974;50.838;4.636;2023-08-01T14:18:55;4.38;;;1.65;;
32535;SDS011;18974;50.838;4.636;2023-08-01T14:21:22;7.35;;;1.90;;
32535;SDS011;18974;50.838;4.636;2023-08-01T14:23:47;8.93;;;2.10;;
32535;SDS011;18974;50.838;4.636;2023-08-01T14:26:13;8.23;;;1.90;;
32535;SDS011;18974;50.838;4.636;2023-08-01T14:28:40;6.25;;;1.60;;
32535;SDS011;18974;50.838;4.636;2023-08-01T14:31:06;5.55;;;1.67;;
32535;SDS011;18974;50.838;4.636;2023-08-01T14:33:32;8.48;;;1.73;;
32535;SDS011;18974;50.838;4.636;2023-08-01T14:35:59;8.88;;;1.70;;
32535;SDS011;18974;50.838;4.636;2023-08-01T14:38:25;6.88;;;1.60;;
32535;SDS011;18974;50.838;4.636;2023-08-01T14:40:54;5.70;;;1.50;;
32535;SDS011;18974;50.838;4.636;2023-08-01T14:43:20;8.63;;;1.60;;
32535;SDS011;18974;50.838;4.636;2023-08-01T14:45:45;8.95;;;1.63;;
32535;SDS011;18974;50.838;4.636;2023-08-01T14:48:12;8.50;;;1.80;;
32535;SDS011;18974;50.838;4.636;2023-08-01T14:50:37;8.32;;;1.83;;
32535;SDS011;18974;50.838;4.636;2023-08-01T14:53:03;4.05;;;1.35;;